Mermaid Beach, Australia

12:50 PM AEST on November 23, 2019 (GMT +1000)
Tallebudgera | | Change Station

Elev 9 ft 28.04 °S, 153.43 °E | Updated 19 seconds ago

Clear
Clear
77.4 °F
Feels Like 79 °F
N
3.6
Wind Variable Wind from NE
Gusts 4.5 mph

Today
High -- | Low -- °F
--% Chance of Precip.
Yesterday
High -- | Low -- °F
Precip. -- in
Pressure 29.98 in
Visibility 6.2 miles
Clouds
Heat Index 79 °F
Dew Point 65 °F
Humidity 65%
Rainfall 0.00 in
Snow Depth Not available.
4:43 AM 6:22 PM
Waning Crescent, 16% visible
METAR YBCG 230230Z AUTO 01017KT 9999 // NCD 26/17 Q1015 RF00.0/000.0
Pressure 29.98 in
Visibility 6.2 miles
Clouds
Heat Index 79 °F
Dew Point 65 °F
Humidity 65%
Rainfall 0.00 in
Snow Depth Not available.
4:43 AM 6:22 PM
Waning Crescent, 16% visible
METAR YBCG 230230Z AUTO 01017KT 9999 // NCD 26/17 Q1015 RF00.0/000.0

Get Severe Weather Alerts

Thanks for signing up!

Be on the lookout for a verification email in your inbox.

You'll start receiving the daily forecast at 6 AM.

×

10-Day Weather Forecast

×

Almanac

Astronomy

Nov. 23, 2019 Rise Set
Actual Time
Civil Twilight
Nautical Twilight
Astronomical Twilight
Moon
Length of Visible Light
Length of Day
Tomorrow will be .
, % of the Moon is Illuminated

Today's Extremes

Country Highs Country Lows

Community

WunderPhotos

Category 6

Welcome to Category 6. This is the collective home for Weather Underground's featured writeups by Dr. Jeff Masters (right), Bob Henson (left), Chris Burt, and other regular contributors.

Nearby

Air Quality

  Air Quality AQ Index Pollutant
Not available.

Snow Depth

Station Depth Elevation

Earthquake Activity

City Distance Mag. Time & Date
Minimum magnitude displayed is 2.5.

Coastal Water Temperatures

Place Temperature

Stations

Nearby Weather Stations

Station Location Temp. Windchill Dew Point Humidity Wind Precip. Elev Updated Type